sensor_id;sensor_type;location;lat;lon;timestamp;P1;durP1;ratioP1;P2;durP2;ratioP2
15526;SDS011;7865;50.918;4.510;2024-03-23T00:56:48;12.27;;;5.20;;
15526;SDS011;7865;50.918;4.510;2024-03-23T01:01:49;15.43;;;5.23;;
15526;SDS011;7865;50.918;4.510;2024-03-23T01:06:50;16.63;;;4.50;;
15526;SDS011;7865;50.918;4.510;2024-03-23T01:11:51;14.80;;;4.47;;
15526;SDS011;7865;50.918;4.510;2024-03-23T01:16:52;16.53;;;5.63;;
15526;SDS011;7865;50.918;4.510;2024-03-23T01:21:53;10.47;;;5.53;;
15526;SDS011;7865;50.918;4.510;2024-03-23T01:26:54;16.67;;;5.40;;
15526;SDS011;7865;50.918;4.510;2024-03-23T01:31:55;15.87;;;5.63;;
15526;SDS011;7865;50.918;4.510;2024-03-23T01:36:57;13.93;;;5.53;;
15526;SDS011;7865;50.918;4.510;2024-03-23T01:41:58;13.53;;;5.00;;
15526;SDS011;7865;50.918;4.510;2024-03-23T01:46:59;9.97;;;4.97;;
15526;SDS011;7865;50.918;4.510;2024-03-23T01:52:01;19.87;;;5.50;;
15526;SDS011;7865;50.918;4.510;2024-03-23T01:57:03;14.33;;;5.63;;
15526;SDS011;7865;50.918;4.510;2024-03-23T02:02:05;16.33;;;5.03;;
15526;SDS011;7865;50.918;4.510;2024-03-23T02:07:06;15.77;;;5.43;;
15526;SDS011;7865;50.918;4.510;2024-03-23T02:12:08;16.27;;;6.00;;
15526;SDS011;7865;50.918;4.510;2024-03-23T02:17:09;18.13;;;8.70;;
15526;SDS011;7865;50.918;4.510;2024-03-23T02:22:10;22.80;;;9.43;;
15526;SDS011;7865;50.918;4.510;2024-03-23T02:27:12;25.97;;;9.70;;
15526;SDS011;7865;50.918;4.510;2024-03-23T02:32:13;30.73;;;11.60;;
15526;SDS011;7865;50.918;4.510;2024-03-23T02:37:14;22.73;;;10.33;;
15526;SDS011;7865;50.918;4.510;2024-03-23T02:42:15;21.90;;;9.33;;
15526;SDS011;7865;50.918;4.510;2024-03-23T02:47:18;23.10;;;10.60;;
15526;SDS011;7865;50.918;4.510;2024-03-23T02:52:19;24.27;;;10.37;;
15526;SDS011;7865;50.918;4.510;2024-03-23T02:57:20;25.23;;;9.90;;
15526;SDS011;7865;50.918;4.510;2024-03-23T03:02:21;25.63;;;10.27;;
15526;SDS011;7865;50.918;4.510;2024-03-23T03:07:23;24.90;;;10.57;;
15526;SDS011;7865;50.918;4.510;2024-03-23T03:12:24;30.70;;;9.70;;
15526;SDS011;7865;50.918;4.510;2024-03-23T03:17:25;25.43;;;10.47;;
15526;SDS011;7865;50.918;4.510;2024-03-23T03:22:26;27.37;;;8.83;;
15526;SDS011;7865;50.918;4.510;2024-03-23T03:27:27;29.60;;;10.23;;
15526;SDS011;7865;50.918;4.510;2024-03-23T03:32:29;27.70;;;11.20;;
15526;SDS011;7865;50.918;4.510;2024-03-23T03:37:30;21.93;;;9.70;;
15526;SDS011;7865;50.918;4.510;2024-03-23T03:42:31;23.83;;;10.03;;
15526;SDS011;7865;50.918;4.510;2024-03-23T03:47:32;27.47;;;11.20;;
15526;SDS011;7865;50.918;4.510;2024-03-23T03:52:34;23.70;;;10.27;;
15526;SDS011;7865;50.918;4.510;2024-03-23T03:57:35;32.77;;;11.30;;
15526;SDS011;7865;50.918;4.510;2024-03-23T04:02:36;26.13;;;10.27;;
15526;SDS011;7865;50.918;4.510;2024-03-23T04:07:38;24.70;;;10.17;;
15526;SDS011;7865;50.918;4.510;2024-03-23T04:12:39;24.67;;;11.77;;
15526;SDS011;7865;50.918;4.510;2024-03-23T04:17:41;29.17;;;12.47;;
15526;SDS011;7865;50.918;4.510;2024-03-23T04:22:43;40.40;;;13.10;;
15526;SDS011;7865;50.918;4.510;2024-03-23T04:27:44;34.27;;;15.37;;
15526;SDS011;7865;50.918;4.510;2024-03-23T04:32:46;36.10;;;13.97;;
15526;SDS011;7865;50.918;4.510;2024-03-23T04:37:48;35.27;;;14.80;;
15526;SDS011;7865;50.918;4.510;2024-03-23T04:42:49;32.87;;;14.60;;
15526;SDS011;7865;50.918;4.510;2024-03-23T04:47:50;27.10;;;14.00;;
15526;SDS011;7865;50.918;4.510;2024-03-23T04:52:51;29.97;;;12.93;;
15526;SDS011;7865;50.918;4.510;2024-03-23T04:57:53;31.03;;;10.93;;
15526;SDS011;7865;50.918;4.510;2024-03-23T05:02:54;28.90;;;11.57;;
15526;SDS011;7865;50.918;4.510;2024-03-23T05:07:55;23.20;;;10.40;;
15526;SDS011;7865;50.918;4.510;2024-03-23T05:12:56;20.27;;;8.33;;
15526;SDS011;7865;50.918;4.510;2024-03-23T05:17:57;25.97;;;8.63;;
15526;SDS011;7865;50.918;4.510;2024-03-23T05:22:58;18.07;;;9.27;;
15526;SDS011;7865;50.918;4.510;2024-03-23T05:27:59;29.03;;;8.67;;
15526;SDS011;7865;50.918;4.510;2024-03-23T05:33:01;19.93;;;8.50;;
15526;SDS011;7865;50.918;4.510;2024-03-23T05:38:02;17.23;;;8.87;;
15526;SDS011;7865;50.918;4.510;2024-03-23T05:43:03;31.53;;;10.50;;
15526;SDS011;7865;50.918;4.510;2024-03-23T05:48:05;26.20;;;10.27;;
15526;SDS011;7865;50.918;4.510;2024-03-23T05:53:06;26.63;;;11.07;;
15526;SDS011;7865;50.918;4.510;2024-03-23T05:58:07;35.00;;;12.77;;
15526;SDS011;7865;50.918;4.510;2024-03-23T06:03:09;31.83;;;11.53;;
15526;SDS011;7865;50.918;4.510;2024-03-23T06:08:13;25.63;;;11.87;;
15526;SDS011;7865;50.918;4.510;2024-03-23T06:13:16;22.10;;;9.10;;
15526;SDS011;7865;50.918;4.510;2024-03-23T06:18:17;24.17;;;9.10;;
15526;SDS011;7865;50.918;4.510;2024-03-23T06:23:19;22.87;;;8.80;;
15526;SDS011;7865;50.918;4.510;2024-03-23T06:28:21;20.90;;;7.83;;
15526;SDS011;7865;50.918;4.510;2024-03-23T06:33:22;19.33;;;7.07;;
15526;SDS011;7865;50.918;4.510;2024-03-23T06:38:24;26.53;;;6.70;;
15526;SDS011;7865;50.918;4.510;2024-03-23T06:43:25;17.43;;;5.73;;
15526;SDS011;7865;50.918;4.510;2024-03-23T06:48:26;18.20;;;5.63;;
15526;SDS011;7865;50.918;4.510;2024-03-23T06:53:27;15.23;;;5.23;;
15526;SDS011;7865;50.918;4.510;2024-03-23T06:58:29;21.77;;;6.03;;
15526;SDS011;7865;50.918;4.510;2024-03-23T07:03:30;18.53;;;5.67;;
15526;SDS011;7865;50.918;4.510;2024-03-23T07:08:31;16.80;;;4.00;;
15526;SDS011;7865;50.918;4.510;2024-03-23T07:13:32;14.93;;;4.23;;
15526;SDS011;7865;50.918;4.510;2024-03-23T07:18:33;18.67;;;3.47;;
15526;SDS011;7865;50.918;4.510;2024-03-23T07:23:35;20.67;;;4.17;;
15526;SDS011;7865;50.918;4.510;2024-03-23T07:28:36;14.93;;;3.17;;
15526;SDS011;7865;50.918;4.510;2024-03-23T07:33:42;10.47;;;3.17;;
15526;SDS011;7865;50.918;4.510;2024-03-23T07:38:47;10.47;;;3.63;;
15526;SDS011;7865;50.918;4.510;2024-03-23T07:43:59;7.90;;;3.63;;
15526;SDS011;7865;50.918;4.510;2024-03-23T07:49:01;14.70;;;4.67;;
15526;SDS011;7865;50.918;4.510;2024-03-23T07:54:02;13.90;;;3.27;;
15526;SDS011;7865;50.918;4.510;2024-03-23T07:59:03;9.50;;;3.97;;
15526;SDS011;7865;50.918;4.510;2024-03-23T08:04:05;15.20;;;4.27;;
15526;SDS011;7865;50.918;4.510;2024-03-23T08:09:07;13.67;;;3.53;;
15526;SDS011;7865;50.918;4.510;2024-03-23T08:14:08;10.70;;;3.57;;
15526;SDS011;7865;50.918;4.510;2024-03-23T08:19:09;14.63;;;3.03;;
15526;SDS011;7865;50.918;4.510;2024-03-23T08:24:10;9.70;;;3.17;;
15526;SDS011;7865;50.918;4.510;2024-03-23T08:29:11;11.83;;;2.93;;
15526;SDS011;7865;50.918;4.510;2024-03-23T08:34:12;9.50;;;2.90;;
15526;SDS011;7865;50.918;4.510;2024-03-23T08:39:13;14.70;;;5.10;;
15526;SDS011;7865;50.918;4.510;2024-03-23T08:44:21;12.77;;;3.60;;
15526;SDS011;7865;50.918;4.510;2024-03-23T08:49:23;11.67;;;3.03;;
15526;SDS011;7865;50.918;4.510;2024-03-23T08:54:27;11.00;;;3.53;;
15526;SDS011;7865;50.918;4.510;2024-03-23T08:59:29;14.43;;;3.77;;
15526;SDS011;7865;50.918;4.510;2024-03-23T09:04:31;10.37;;;2.43;;
15526;SDS011;7865;50.918;4.510;2024-03-23T09:09:32;9.50;;;2.67;;
15526;SDS011;7865;50.918;4.510;2024-03-23T09:14:33;10.67;;;3.00;;
15526;SDS011;7865;50.918;4.510;2024-03-23T09:19:35;6.80;;;2.20;;
15526;SDS011;7865;50.918;4.510;2024-03-23T09:24:36;9.27;;;2.43;;
15526;SDS011;7865;50.918;4.510;2024-03-23T09:29:37;9.63;;;2.53;;
15526;SDS011;7865;50.918;4.510;2024-03-23T09:34:38;10.83;;;2.87;;
15526;SDS011;7865;50.918;4.510;2024-03-23T09:39:39;8.10;;;2.43;;
15526;SDS011;7865;50.918;4.510;2024-03-23T09:44:42;8.90;;;2.70;;
15526;SDS011;7865;50.918;4.510;2024-03-23T09:49:44;9.60;;;2.30;;
15526;SDS011;7865;50.918;4.510;2024-03-23T09:54:46;8.80;;;2.20;;
15526;SDS011;7865;50.918;4.510;2024-03-23T09:59:47;7.03;;;2.63;;
15526;SDS011;7865;50.918;4.510;2024-03-23T10:04:48;10.53;;;2.67;;
15526;SDS011;7865;50.918;4.510;2024-03-23T10:09:49;6.77;;;2.37;;
15526;SDS011;7865;50.918;4.510;2024-03-23T10:14:53;11.73;;;3.03;;
15526;SDS011;7865;50.918;4.510;2024-03-23T10:19:55;6.80;;;2.43;;
15526;SDS011;7865;50.918;4.510;2024-03-23T10:24:57;7.20;;;2.80;;
15526;SDS011;7865;50.918;4.510;2024-03-23T10:35:13;4.87;;;2.70;;
15526;SDS011;7865;50.918;4.510;2024-03-23T10:40:24;7.33;;;2.73;;
15526;SDS011;7865;50.918;4.510;2024-03-23T10:45:26;7.32;;;2.45;;
15526;SDS011;7865;50.918;4.510;2024-03-23T10:50:28;4.22;;;2.08;;
15526;SDS011;7865;50.918;4.510;2024-03-23T10:55:29;4.50;;;2.17;;
15526;SDS011;7865;50.918;4.510;2024-03-23T11:00:31;6.97;;;2.20;;
15526;SDS011;7865;50.918;4.510;2024-03-23T11:05:33;7.22;;;2.17;;
15526;SDS011;7865;50.918;4.510;2024-03-23T11:10:35;8.95;;;2.50;;
15526;SDS011;7865;50.918;4.510;2024-03-23T11:15:37;4.93;;;1.80;;
15526;SDS011;7865;50.918;4.510;2024-03-23T11:20:38;5.47;;;1.58;;
15526;SDS011;7865;50.918;4.510;2024-03-23T11:25:39;3.75;;;1.30;;
15526;SDS011;7865;50.918;4.510;2024-03-23T11:30:40;7.38;;;1.40;;
15526;SDS011;7865;50.918;4.510;2024-03-23T11:35:41;4.70;;;1.30;;
15526;SDS011;7865;50.918;4.510;2024-03-23T11:40:46;6.53;;;1.50;;
15526;SDS011;7865;50.918;4.510;2024-03-23T11:45:50;6.22;;;1.65;;
15526;SDS011;7865;50.918;4.510;2024-03-23T11:50:57;6.80;;;1.27;;
15526;SDS011;7865;50.918;4.510;2024-03-23T11:55:59;3.17;;;1.20;;
15526;SDS011;7865;50.918;4.510;2024-03-23T12:01:04;3.03;;;1.42;;
15526;SDS011;7865;50.918;4.510;2024-03-23T12:06:05;9.23;;;1.60;;
15526;SDS011;7865;50.918;4.510;2024-03-23T12:11:09;7.45;;;1.63;;
15526;SDS011;7865;50.918;4.510;2024-03-23T12:16:13;5.90;;;1.08;;
15526;SDS011;7865;50.918;4.510;2024-03-23T12:21:18;4.53;;;1.58;;
15526;SDS011;7865;50.918;4.510;2024-03-23T12:26:19;5.15;;;1.50;;
15526;SDS011;7865;50.918;4.510;2024-03-23T12:31:21;5.35;;;1.35;;
15526;SDS011;7865;50.918;4.510;2024-03-23T12:36:22;3.83;;;1.30;;
15526;SDS011;7865;50.918;4.510;2024-03-23T12:41:23;3.42;;;0.90;;
15526;SDS011;7865;50.918;4.510;2024-03-23T12:46:24;3.95;;;1.13;;
15526;SDS011;7865;50.918;4.510;2024-03-23T12:51:25;6.28;;;1.80;;
15526;SDS011;7865;50.918;4.510;2024-03-23T12:56:27;5.82;;;1.40;;
15526;SDS011;7865;50.918;4.510;2024-03-23T13:01:34;4.43;;;1.08;;
15526;SDS011;7865;50.918;4.510;2024-03-23T13:06:35;5.25;;;1.80;;
15526;SDS011;7865;50.918;4.510;2024-03-23T13:11:36;4.47;;;1.35;;
15526;SDS011;7865;50.918;4.510;2024-03-23T13:16:37;7.78;;;1.38;;
15526;SDS011;7865;50.918;4.510;2024-03-23T13:21:38;5.88;;;1.08;;
15526;SDS011;7865;50.918;4.510;2024-03-23T13:26:40;6.75;;;1.58;;
15526;SDS011;7865;50.918;4.510;2024-03-23T13:31:41;6.37;;;1.70;;
15526;SDS011;7865;50.918;4.510;2024-03-23T13:36:42;6.20;;;1.40;;
15526;SDS011;7865;50.918;4.510;2024-03-23T13:41:44;4.30;;;1.27;;
15526;SDS011;7865;50.918;4.510;2024-03-23T13:46:46;5.90;;;1.63;;
15526;SDS011;7865;50.918;4.510;2024-03-23T13:51:48;6.60;;;1.57;;
15526;SDS011;7865;50.918;4.510;2024-03-23T13:56:49;4.70;;;1.47;;
15526;SDS011;7865;50.918;4.510;2024-03-23T14:01:51;5.53;;;1.50;;
15526;SDS011;7865;50.918;4.510;2024-03-23T14:06:57;3.17;;;1.10;;
15526;SDS011;7865;50.918;4.510;2024-03-23T14:11:58;3.93;;;1.83;;
15526;SDS011;7865;50.918;4.510;2024-03-23T14:17:01;3.47;;;1.00;;
15526;SDS011;7865;50.918;4.510;2024-03-23T14:22:02;4.40;;;1.03;;
15526;SDS011;7865;50.918;4.510;2024-03-23T14:27:04;3.97;;;1.30;;
15526;SDS011;7865;50.918;4.510;2024-03-23T14:32:06;5.57;;;1.57;;
15526;SDS011;7865;50.918;4.510;2024-03-23T14:37:07;8.17;;;2.10;;
15526;SDS011;7865;50.918;4.510;2024-03-23T14:42:08;4.50;;;1.93;;
15526;SDS011;7865;50.918;4.510;2024-03-23T14:47:10;4.73;;;1.83;;
15526;SDS011;7865;50.918;4.510;2024-03-23T14:52:11;4.57;;;2.03;;
15526;SDS011;7865;50.918;4.510;2024-03-23T14:57:12;9.23;;;2.20;;
15526;SDS011;7865;50.918;4.510;2024-03-23T15:02:14;7.27;;;1.67;;
15526;SDS011;7865;50.918;4.510;2024-03-23T15:07:15;6.23;;;3.00;;
15526;SDS011;7865;50.918;4.510;2024-03-23T15:12:17;8.30;;;1.33;;
15526;SDS011;7865;50.918;4.510;2024-03-23T15:17:18;8.47;;;1.83;;
15526;SDS011;7865;50.918;4.510;2024-03-23T15:22:19;7.33;;;1.30;;
15526;SDS011;7865;50.918;4.510;2024-03-23T15:27:22;4.00;;;1.37;;
15526;SDS011;7865;50.918;4.510;2024-03-23T15:32:23;6.00;;;1.27;;
15526;SDS011;7865;50.918;4.510;2024-03-23T15:37:24;6.53;;;1.20;;
15526;SDS011;7865;50.918;4.510;2024-03-23T15:42:25;6.03;;;1.50;;
15526;SDS011;7865;50.918;4.510;2024-03-23T15:47:26;9.20;;;1.43;;
15526;SDS011;7865;50.918;4.510;2024-03-23T15:52:27;6.57;;;1.57;;
15526;SDS011;7865;50.918;4.510;2024-03-23T15:57:28;2.73;;;0.97;;
15526;SDS011;7865;50.918;4.510;2024-03-23T16:02:29;9.13;;;2.20;;
15526;SDS011;7865;50.918;4.510;2024-03-23T16:07:35;3.47;;;1.57;;
15526;SDS011;7865;50.918;4.510;2024-03-23T16:12:36;7.30;;;1.73;;
15526;SDS011;7865;50.918;4.510;2024-03-23T16:17:37;5.17;;;1.60;;
15526;SDS011;7865;50.918;4.510;2024-03-23T16:22:40;7.87;;;1.63;;
15526;SDS011;7865;50.918;4.510;2024-03-23T16:27:42;6.27;;;1.63;;
15526;SDS011;7865;50.918;4.510;2024-03-23T16:32:43;6.63;;;1.50;;
15526;SDS011;7865;50.918;4.510;2024-03-23T16:37:45;6.53;;;1.50;;
15526;SDS011;7865;50.918;4.510;2024-03-23T16:42:47;8.97;;;2.60;;
15526;SDS011;7865;50.918;4.510;2024-03-23T16:47:48;8.93;;;2.13;;
15526;SDS011;7865;50.918;4.510;2024-03-23T16:52:50;9.40;;;1.63;;
15526;SDS011;7865;50.918;4.510;2024-03-23T16:57:51;10.30;;;1.77;;
15526;SDS011;7865;50.918;4.510;2024-03-23T17:02:52;20.20;;;10.13;;
15526;SDS011;7865;50.918;4.510;2024-03-23T17:07:53;9.07;;;1.90;;
15526;SDS011;7865;50.918;4.510;2024-03-23T17:12:56;6.80;;;2.13;;
15526;SDS011;7865;50.918;4.510;2024-03-23T17:17:58;4.33;;;1.50;;
15526;SDS011;7865;50.918;4.510;2024-03-23T17:22:59;6.10;;;1.57;;
15526;SDS011;7865;50.918;4.510;2024-03-23T17:28:01;4.83;;;1.40;;
15526;SDS011;7865;50.918;4.510;2024-03-23T17:33:03;5.27;;;1.60;;
15526;SDS011;7865;50.918;4.510;2024-03-23T17:38:04;8.87;;;1.60;;
15526;SDS011;7865;50.918;4.510;2024-03-23T17:43:05;6.90;;;2.43;;
15526;SDS011;7865;50.918;4.510;2024-03-23T17:48:06;5.70;;;1.57;;
15526;SDS011;7865;50.918;4.510;2024-03-23T17:53:07;0.77;;;0.77;;
15526;SDS011;7865;50.918;4.510;2024-03-23T17:58:09;2.27;;;0.93;;
15526;SDS011;7865;50.918;4.510;2024-03-23T18:03:10;1.40;;;0.80;;
15526;SDS011;7865;50.918;4.510;2024-03-23T18:08:11;3.77;;;1.30;;
15526;SDS011;7865;50.918;4.510;2024-03-23T18:13:12;3.17;;;1.03;;
15526;SDS011;7865;50.918;4.510;2024-03-23T18:18:14;8.30;;;2.00;;
15526;SDS011;7865;50.918;4.510;2024-03-23T18:23:15;3.13;;;1.03;;
15526;SDS011;7865;50.918;4.510;2024-03-23T18:28:16;3.83;;;1.40;;
15526;SDS011;7865;50.918;4.510;2024-03-23T18:33:17;2.97;;;1.10;;
15526;SDS011;7865;50.918;4.510;2024-03-23T18:38:18;4.93;;;1.60;;
15526;SDS011;7865;50.918;4.510;2024-03-23T18:43:20;5.37;;;3.10;;
15526;SDS011;7865;50.918;4.510;2024-03-23T18:48:21;3.97;;;1.67;;
15526;SDS011;7865;50.918;4.510;2024-03-23T18:53:22;4.90;;;1.50;;
15526;SDS011;7865;50.918;4.510;2024-03-23T18:58:24;3.33;;;1.30;;
15526;SDS011;7865;50.918;4.510;2024-03-23T19:03:25;7.67;;;2.23;;
15526;SDS011;7865;50.918;4.510;2024-03-23T19:08:28;5.07;;;1.90;;
15526;SDS011;7865;50.918;4.510;2024-03-23T19:13:29;4.03;;;1.73;;
15526;SDS011;7865;50.918;4.510;2024-03-23T19:18:31;4.70;;;1.70;;
15526;SDS011;7865;50.918;4.510;2024-03-23T19:23:33;3.43;;;1.70;;
15526;SDS011;7865;50.918;4.510;2024-03-23T19:28:34;9.07;;;2.60;;
15526;SDS011;7865;50.918;4.510;2024-03-23T19:33:36;2.63;;;1.50;;
15526;SDS011;7865;50.918;4.510;2024-03-23T19:38:37;2.83;;;1.13;;
15526;SDS011;7865;50.918;4.510;2024-03-23T19:43:38;4.90;;;1.47;;
15526;SDS011;7865;50.918;4.510;2024-03-23T19:48:39;5.40;;;2.00;;
15526;SDS011;7865;50.918;4.510;2024-03-23T19:53:40;5.37;;;2.50;;
15526;SDS011;7865;50.918;4.510;2024-03-23T19:58:41;7.83;;;2.23;;
15526;SDS011;7865;50.918;4.510;2024-03-23T20:03:46;5.97;;;2.07;;
15526;SDS011;7865;50.918;4.510;2024-03-23T20:08:50;2.77;;;1.80;;
15526;SDS011;7865;50.918;4.510;2024-03-23T20:13:51;6.50;;;2.23;;
15526;SDS011;7865;50.918;4.510;2024-03-23T20:18:53;5.17;;;2.10;;
15526;SDS011;7865;50.918;4.510;2024-03-23T20:23:56;3.87;;;1.93;;
15526;SDS011;7865;50.918;4.510;2024-03-23T20:28:57;4.17;;;1.67;;
15526;SDS011;7865;50.918;4.510;2024-03-23T20:33:59;3.57;;;2.17;;
15526;SDS011;7865;50.918;4.510;2024-03-23T20:39:00;3.30;;;2.00;;
15526;SDS011;7865;50.918;4.510;2024-03-23T20:44:01;6.67;;;1.90;;
15526;SDS011;7865;50.918;4.510;2024-03-23T20:49:02;5.43;;;2.00;;
15526;SDS011;7865;50.918;4.510;2024-03-23T20:54:04;4.77;;;1.60;;
15526;SDS011;7865;50.918;4.510;2024-03-23T20:59:05;5.83;;;1.73;;
15526;SDS011;7865;50.918;4.510;2024-03-23T21:04:06;7.47;;;2.30;;
15526;SDS011;7865;50.918;4.510;2024-03-23T21:09:07;3.97;;;1.80;;
15526;SDS011;7865;50.918;4.510;2024-03-23T21:14:09;6.07;;;2.17;;
15526;SDS011;7865;50.918;4.510;2024-03-23T21:19:10;3.53;;;1.90;;
15526;SDS011;7865;50.918;4.510;2024-03-23T21:24:12;5.90;;;1.93;;
15526;SDS011;7865;50.918;4.510;2024-03-23T21:29:14;7.83;;;1.60;;
15526;SDS011;7865;50.918;4.510;2024-03-23T21:34:15;4.10;;;1.90;;
15526;SDS011;7865;50.918;4.510;2024-03-23T21:39:16;4.03;;;1.77;;
15526;SDS011;7865;50.918;4.510;2024-03-23T21:44:20;6.07;;;2.03;;
15526;SDS011;7865;50.918;4.510;2024-03-23T21:49:21;7.57;;;2.03;;
15526;SDS011;7865;50.918;4.510;2024-03-23T21:54:22;2.53;;;1.97;;
15526;SDS011;7865;50.918;4.510;2024-03-23T21:59:23;4.57;;;1.67;;
15526;SDS011;7865;50.918;4.510;2024-03-23T22:04:25;4.37;;;1.60;;
15526;SDS011;7865;50.918;4.510;2024-03-23T22:09:26;4.90;;;1.40;;
15526;SDS011;7865;50.918;4.510;2024-03-23T22:14:29;5.50;;;2.40;;
15526;SDS011;7865;50.918;4.510;2024-03-23T22:19:31;4.77;;;2.10;;
15526;SDS011;7865;50.918;4.510;2024-03-23T22:24:32;6.37;;;2.13;;
15526;SDS011;7865;50.918;4.510;2024-03-23T22:29:33;5.40;;;2.40;;
15526;SDS011;7865;50.918;4.510;2024-03-23T22:34:34;5.70;;;2.17;;
15526;SDS011;7865;50.918;4.510;2024-03-23T22:39:41;7.37;;;2.43;;
15526;SDS011;7865;50.918;4.510;2024-03-23T22:44:42;5.43;;;2.40;;
15526;SDS011;7865;50.918;4.510;2024-03-23T22:49:43;8.03;;;2.63;;
15526;SDS011;7865;50.918;4.510;2024-03-23T22:54:44;7.57;;;2.50;;
15526;SDS011;7865;50.918;4.510;2024-03-23T22:59:45;9.43;;;2.70;;
15526;SDS011;7865;50.918;4.510;2024-03-23T23:04:48;4.90;;;2.17;;
15526;SDS011;7865;50.918;4.510;2024-03-23T23:09:50;5.33;;;2.87;;
15526;SDS011;7865;50.918;4.510;2024-03-23T23:14:51;4.90;;;2.13;;
15526;SDS011;7865;50.918;4.510;2024-03-23T23:19:53;7.83;;;2.60;;
15526;SDS011;7865;50.918;4.510;2024-03-23T23:24:54;4.43;;;2.47;;
15526;SDS011;7865;50.918;4.510;2024-03-23T23:29:55;10.70;;;3.23;;
15526;SDS011;7865;50.918;4.510;2024-03-23T23:34:59;6.90;;;2.73;;
15526;SDS011;7865;50.918;4.510;2024-03-23T23:40:02;5.67;;;2.80;;
15526;SDS011;7865;50.918;4.510;2024-03-23T23:45:04;6.97;;;2.67;;
15526;SDS011;7865;50.918;4.510;2024-03-23T23:50:06;7.57;;;2.73;;
15526;SDS011;7865;50.918;4.510;2024-03-23T23:55:07;5.10;;;2.53;;
